Time;durP1;ratioP1;P1;durP2;ratioP2;P2;SDS_P1;SDS_P2;PMS_P1;PMS_P2;Temp;Humidity;BMP_temperature;BMP_pressure;BME280_temperature;BME280_humidity;BME280_pressure;Samples;Min_cycle;Max_cycle;Signal;HPM_P1;HPM_P2
2022/05/15 00:02:24;;;;;;;14.50;4.88;;;;;;;;;;5052263;28;20092;-79
2022/05/15 00:04:51;;;;;;;20.95;6.15;;;;;;;;;;5052401;28;20076;-79
2022/05/15 00:07:17;;;;;;;24.65;6.15;;;;;;;;;;5069028;28;20088;-79
2022/05/15 00:09:44;;;;;;;17.80;5.88;;;;;;;;;;5068240;28;20053;-79
2022/05/15 00:12:11;;;;;;;20.35;5.82;;;;;;;;;;5064549;28;20496;-79
2022/05/15 00:14:37;;;;;;;24.23;6.07;;;;;;;;;;5072157;28;20101;-79
2022/05/15 00:17:04;;;;;;;23.52;6.15;;;;;;;;;;5072430;28;20076;-79
2022/05/15 00:19:31;;;;;;;25.15;6.03;;;;;;;;;;5066160;28;20476;-79
2022/05/15 00:21:57;;;;;;;21.17;5.82;;;;;;;;;;5059643;28;20132;-79
2022/05/15 00:24:23;;;;;;;20.50;5.80;;;;;;;;;;5070723;28;20057;-79
2022/05/15 00:26:50;;;;;;;27.02;6.07;;;;;;;;;;5067547;28;20132;-79
2022/05/15 00:29:16;;;;;;;26.05;6.32;;;;;;;;;;5053138;28;20065;-79
2022/05/15 00:31:42;;;;;;;21.67;5.80;;;;;;;;;;5073387;28;20053;-79
2022/05/15 00:34:09;;;;;;;20.30;6.57;;;;;;;;;;5073335;28;20096;-79
2022/05/15 00:36:36;;;;;;;22.27;5.90;;;;;;;;;;5072867;28;20091;-79
2022/05/15 00:39:03;;;;;;;22.95;5.82;;;;;;;;;;5072279;28;20065;-79
2022/05/15 00:41:30;;;;;;;24.17;6.80;;;;;;;;;;5071731;28;20053;-79
2022/05/15 00:43:57;;;;;;;17.50;5.35;;;;;;;;;;5070467;28;20545;-78
2022/05/15 00:46:28;;;;;;;23.77;5.85;;;;;;;;;;5072148;28;20057;-79
2022/05/15 00:48:56;;;;;;;25.10;6.60;;;;;;;;;;5049846;28;20045;-79
2022/05/15 00:51:23;;;;;;;21.10;6.53;;;;;;;;;;5052069;28;20045;-79
2022/05/15 00:53:50;;;;;;;23.17;7.60;;;;;;;;;;5050894;28;20093;-79
2022/05/15 00:56:18;;;;;;;19.85;5.75;;;;;;;;;;5052039;28;20072;-79
2022/05/15 00:58:48;;;;;;;21.02;6.25;;;;;;;;;;5053178;28;20061;-78
2022/05/15 01:01:15;;;;;;;28.52;6.32;;;;;;;;;;5064298;28;20545;-78
2022/05/15 01:03:43;;;;;;;27.08;6.18;;;;;;;;;;5067380;28;20081;-78
2022/05/15 01:06:09;;;;;;;18.42;5.85;;;;;;;;;;5067664;28;20053;-78
2022/05/15 01:08:36;;;;;;;24.80;6.13;;;;;;;;;;5051059;28;20041;-78
2022/05/15 01:11:08;;;;;;;18.02;5.80;;;;;;;;;;5053910;28;20569;-78
2022/05/15 01:13:35;;;;;;;24.90;6.15;;;;;;;;;;5071882;28;20087;-78
2022/05/15 01:16:02;;;;;;;23.10;6.40;;;;;;;;;;5067126;28;20050;-78
2022/05/15 01:18:32;;;;;;;21.17;6.18;;;;;;;;;;5067554;28;20061;-78
2022/05/15 01:20:59;;;;;;;30.08;7.60;;;;;;;;;;5049036;28;20157;-78
2022/05/15 01:23:29;;;;;;;19.80;5.75;;;;;;;;;;5067162;28;20430;-78
2022/05/15 01:26:00;;;;;;;18.38;5.53;;;;;;;;;;5065420;28;20057;-78
2022/05/15 01:28:27;;;;;;;21.13;6.85;;;;;;;;;;5050982;28;20140;-78
2022/05/15 01:30:54;;;;;;;17.38;5.40;;;;;;;;;;5052668;28;20087;-78
2022/05/15 01:33:21;;;;;;;19.35;5.72;;;;;;;;;;5080250;28;20061;-78
2022/05/15 01:35:47;;;;;;;19.52;5.50;;;;;;;;;;5052838;28;20053;-79
2022/05/15 01:38:13;;;;;;;18.20;5.95;;;;;;;;;;5068394;28;20053;-78
2022/05/15 01:40:40;;;;;;;19.38;5.47;;;;;;;;;;5066862;28;20136;-78
2022/05/15 01:43:07;;;;;;;20.60;5.45;;;;;;;;;;5051623;28;20132;-78
2022/05/15 01:45:34;;;;;;;17.73;5.35;;;;;;;;;;5057627;28;20056;-78
2022/05/15 01:48:02;;;;;;;22.05;5.82;;;;;;;;;;5056422;28;20072;-78
2022/05/15 01:50:28;;;;;;;24.23;6.22;;;;;;;;;;5062066;28;20092;-78
2022/05/15 01:52:55;;;;;;;19.95;6.18;;;;;;;;;;5070378;28;20055;-78
2022/05/15 01:55:21;;;;;;;22.40;5.90;;;;;;;;;;5070078;28;20635;-78
2022/05/15 01:57:47;;;;;;;21.27;6.32;;;;;;;;;;5088955;28;20614;-78
2022/05/15 02:00:16;;;;;;;21.63;6.57;;;;;;;;;;5090360;28;20072;-78
2022/05/15 02:02:43;;;;;;;20.25;5.80;;;;;;;;;;5069568;28;20057;-78
2022/05/15 02:05:10;;;;;;;21.45;6.05;;;;;;;;;;5069690;28;20536;-78
2022/05/15 02:07:36;;;;;;;20.15;5.85;;;;;;;;;;5067200;28;20108;-78
2022/05/15 02:10:03;;;;;;;22.15;6.18;;;;;;;;;;5069611;28;20145;-78
2022/05/15 02:12:30;;;;;;;18.98;5.45;;;;;;;;;;5070185;28;20053;-78
2022/05/15 02:14:57;;;;;;;20.25;6.13;;;;;;;;;;5065773;28;20100;-78
2022/05/15 02:17:23;;;;;;;17.58;5.72;;;;;;;;;;5069858;28;20053;-78
2022/05/15 02:19:50;;;;;;;16.60;5.45;;;;;;;;;;5068286;28;20063;-78
2022/05/15 02:22:17;;;;;;;20.05;5.43;;;;;;;;;;5069686;28;20108;-78
2022/05/15 02:24:43;;;;;;;19.38;6.78;;;;;;;;;;5057765;28;20057;-78
2022/05/15 02:27:09;;;;;;;15.38;5.80;;;;;;;;;;5064464;28;20160;-78
2022/05/15 02:29:36;;;;;;;20.02;5.47;;;;;;;;;;5069301;28;20057;-78
2022/05/15 02:32:02;;;;;;;23.45;5.82;;;;;;;;;;5069157;28;20525;-78
2022/05/15 02:34:29;;;;;;;12.15;4.72;;;;;;;;;;5066374;28;20084;-78
2022/05/15 02:36:55;;;;;;;15.80;4.95;;;;;;;;;;5065437;28;20152;-78
2022/05/15 02:39:22;;;;;;;18.65;5.47;;;;;;;;;;5066018;28;20132;-78
2022/05/15 02:41:48;;;;;;;15.07;5.53;;;;;;;;;;5066176;28;20084;-77
2022/05/15 02:44:14;;;;;;;17.58;5.40;;;;;;;;;;5066488;28;20210;-78
2022/05/15 02:46:40;;;;;;;17.00;5.03;;;;;;;;;;5050552;28;20131;-78
2022/05/15 02:51:52;;;;;;;18.38;5.15;;;;;;;;;;5048094;28;20164;-78
2022/05/15 02:54:18;;;;;;;17.08;5.35;;;;;;;;;;5044927;28;20141;-79
2022/05/15 02:56:45;;;;;;;21.80;6.53;;;;;;;;;;5044223;28;20053;-78
2022/05/15 02:59:12;;;;;;;20.88;5.95;;;;;;;;;;5060998;28;20081;-78
2022/05/15 03:01:38;;;;;;;18.90;5.85;;;;;;;;;;5066512;28;20071;-78
2022/05/15 03:04:04;;;;;;;15.57;5.60;;;;;;;;;;5054093;28;20068;-78
2022/05/15 03:06:31;;;;;;;23.75;6.20;;;;;;;;;;5047324;28;20099;-78
2022/05/15 03:08:58;;;;;;;21.73;6.18;;;;;;;;;;5057346;28;20738;-78
2022/05/15 03:11:25;;;;;;;22.70;6.28;;;;;;;;;;5068359;28;20136;-78
2022/05/15 03:13:51;;;;;;;23.52;6.55;;;;;;;;;;5068076;28;20037;-78
2022/05/15 03:16:18;;;;;;;28.50;7.07;;;;;;;;;;5056304;28;20160;-78
2022/05/15 03:18:46;;;;;;;17.77;6.00;;;;;;;;;;5068984;28;20054;-78
2022/05/15 03:21:28;;;;;;;22.40;6.32;;;;;;;;;;5068582;28;20953;-79
2022/05/15 03:23:59;;;;;;;18.88;6.47;;;;;;;;;;5071349;28;20056;-79
2022/05/15 03:26:26;;;;;;;19.02;6.38;;;;;;;;;;5070863;28;20131;-78
2022/05/15 03:28:53;;;;;;;19.63;5.78;;;;;;;;;;5072562;28;20201;-79
2022/05/15 03:31:20;;;;;;;15.32;5.47;;;;;;;;;;5073360;28;20057;-78
2022/05/15 03:33:47;;;;;;;20.08;6.07;;;;;;;;;;5053656;28;20088;-78
2022/05/15 03:36:14;;;;;;;18.23;5.72;;;;;;;;;;5069770;28;20069;-78
2022/05/15 03:38:41;;;;;;;18.23;5.80;;;;;;;;;;5053799;28;20034;-77
2022/05/15 03:41:08;;;;;;;15.77;5.25;;;;;;;;;;5062910;28;20243;-78
2022/05/15 03:43:34;;;;;;;17.80;6.00;;;;;;;;;;5046335;28;20049;-77
2022/05/15 03:46:01;;;;;;;16.30;5.32;;;;;;;;;;5075641;28;20076;-78
2022/05/15 03:48:28;;;;;;;14.15;5.65;;;;;;;;;;5070588;28;20049;-78
2022/05/15 03:50:54;;;;;;;19.23;5.90;;;;;;;;;;5049937;28;20132;-78
2022/05/15 03:53:21;;;;;;;21.35;6.07;;;;;;;;;;5078483;28;20088;-78
2022/05/15 03:55:47;;;;;;;18.40;5.82;;;;;;;;;;5091566;28;20053;-78
2022/05/15 03:58:13;;;;;;;23.70;6.05;;;;;;;;;;5090868;28;20084;-77
2022/05/15 04:00:41;;;;;;;22.83;6.78;;;;;;;;;;5090932;28;20135;-77
2022/05/15 04:03:08;;;;;;;21.83;6.72;;;;;;;;;;5093008;28;20130;-78
2022/05/15 04:05:34;;;;;;;29.38;6.38;;;;;;;;;;5085840;28;20068;-78
2022/05/15 04:08:02;;;;;;;22.35;6.40;;;;;;;;;;5068063;28;20053;-79
2022/05/15 04:10:30;;;;;;;24.35;6.63;;;;;;;;;;5068144;28;20059;-78
2022/05/15 04:12:56;;;;;;;26.20;6.60;;;;;;;;;;5092561;28;20039;-78
2022/05/15 04:15:22;;;;;;;20.52;6.53;;;;;;;;;;5094031;28;20191;-78
2022/05/15 04:17:50;;;;;;;22.92;6.25;;;;;;;;;;5092119;28;20057;-79
2022/05/15 04:20:19;;;;;;;24.88;6.28;;;;;;;;;;5090400;28;20606;-78
2022/05/15 04:22:46;;;;;;;20.35;6.75;;;;;;;;;;5087906;28;20071;-78
2022/05/15 04:25:12;;;;;;;24.85;6.43;;;;;;;;;;5071748;28;20805;-79
2022/05/15 04:27:39;;;;;;;24.35;6.47;;;;;;;;;;5070550;28;20049;-78
2022/05/15 04:30:06;;;;;;;20.63;6.28;;;;;;;;;;5071793;28;20927;-78
2022/05/15 04:32:32;;;;;;;24.27;6.05;;;;;;;;;;5074723;28;20156;-78
2022/05/15 04:34:58;;;;;;;25.10;6.93;;;;;;;;;;5072901;28;20093;-78
2022/05/15 04:37:25;;;;;;;22.67;6.22;;;;;;;;;;5073322;28;20140;-78
2022/05/15 04:39:51;;;;;;;20.20;6.45;;;;;;;;;;5070283;28;20063;-78
2022/05/15 04:42:17;;;;;;;19.13;6.50;;;;;;;;;;5067161;28;20077;-77
2022/05/15 04:44:45;;;;;;;21.02;6.22;;;;;;;;;;5049650;28;20137;-78
2022/05/15 04:47:12;;;;;;;16.85;6.57;;;;;;;;;;5057047;28;20063;-78
2022/05/15 04:49:38;;;;;;;23.40;6.72;;;;;;;;;;5054281;28;20142;-78
2022/05/15 04:52:05;;;;;;;16.70;6.07;;;;;;;;;;5071537;28;20097;-78
2022/05/15 04:54:31;;;;;;;19.95;6.05;;;;;;;;;;5071040;28;20139;-78
2022/05/15 04:56:57;;;;;;;19.08;6.22;;;;;;;;;;5066786;28;20164;-78
2022/05/15 04:59:24;;;;;;;14.27;5.43;;;;;;;;;;5065039;28;20056;-78
2022/05/15 05:01:50;;;;;;;15.40;5.47;;;;;;;;;;5063415;28;20077;-78
2022/05/15 05:04:17;;;;;;;14.93;4.82;;;;;;;;;;5047314;28;20569;-77
2022/05/15 05:06:43;;;;;;;13.18;5.15;;;;;;;;;;5064283;28;20061;-78
2022/05/15 05:09:11;;;;;;;13.70;5.22;;;;;;;;;;5067299;28;20105;-78
2022/05/15 05:11:37;;;;;;;19.85;6.15;;;;;;;;;;5067441;28;20085;-78
2022/05/15 05:14:04;;;;;;;18.80;5.32;;;;;;;;;;5065011;28;20735;-78
2022/05/15 05:16:31;;;;;;;16.60;5.07;;;;;;;;;;5067642;28;20057;-78
2022/05/15 05:18:57;;;;;;;17.70;5.53;;;;;;;;;;5050614;28;20056;-78
2022/05/15 05:21:24;;;;;;;14.38;5.13;;;;;;;;;;5067211;28;20114;-78
2022/05/15 05:23:50;;;;;;;16.35;5.68;;;;;;;;;;5057864;28;20061;-78
2022/05/15 05:26:17;;;;;;;17.60;5.88;;;;;;;;;;5068886;28;20882;-77
2022/05/15 05:28:43;;;;;;;16.92;6.13;;;;;;;;;;5070146;28;20053;-78
2022/05/15 05:31:11;;;;;;;15.52;5.65;;;;;;;;;;5068731;28;20069;-78
2022/05/15 05:33:37;;;;;;;18.23;5.82;;;;;;;;;;5071745;28;20550;-78
2022/05/15 05:36:04;;;;;;;21.38;6.68;;;;;;;;;;5072678;28;20127;-78
2022/05/15 05:38:33;;;;;;;22.55;6.25;;;;;;;;;;5071229;28;20056;-78
2022/05/15 05:40:59;;;;;;;26.35;6.82;;;;;;;;;;5072213;28;20064;-78
2022/05/15 05:43:25;;;;;;;19.90;5.80;;;;;;;;;;5069547;28;20512;-78
2022/05/15 05:45:52;;;;;;;25.25;7.20;;;;;;;;;;5069660;28;20063;-78
2022/05/15 05:48:18;;;;;;;21.35;6.10;;;;;;;;;;5070436;28;20056;-78
2022/05/15 05:50:44;;;;;;;19.65;5.75;;;;;;;;;;5064713;28;20050;-78
2022/05/15 05:53:11;;;;;;;21.02;6.13;;;;;;;;;;5060940;28;20053;-78
2022/05/15 05:55:37;;;;;;;19.77;6.78;;;;;;;;;;5071858;28;20136;-78
2022/05/15 05:58:03;;;;;;;20.80;5.65;;;;;;;;;;5071227;28;20061;-78
2022/05/15 06:00:31;;;;;;;22.80;6.22;;;;;;;;;;5068564;28;20037;-78
2022/05/15 06:05:47;;;;;;;16.38;4.95;;;;;;;;;;5050368;28;20045;-78
2022/05/15 06:08:14;;;;;;;17.80;5.60;;;;;;;;;;5050393;28;20083;-78
2022/05/15 06:10:41;;;;;;;19.80;6.35;;;;;;;;;;5049685;28;20552;-78
2022/05/15 06:13:08;;;;;;;17.92;5.47;;;;;;;;;;5052125;28;20085;-78
2022/05/15 06:15:34;;;;;;;19.17;5.15;;;;;;;;;;5052072;28;20148;-78
2022/05/15 06:18:02;;;;;;;16.20;4.75;;;;;;;;;;5052810;28;20060;-78
2022/05/15 06:20:28;;;;;;;17.63;5.00;;;;;;;;;;5071319;28;20084;-78
2022/05/15 06:22:55;;;;;;;19.65;5.00;;;;;;;;;;5059580;28;20053;-78
2022/05/15 06:25:21;;;;;;;21.70;4.68;;;;;;;;;;5067881;28;20054;-78
2022/05/15 06:27:48;;;;;;;21.05;4.70;;;;;;;;;;5068899;28;20144;-78
2022/05/15 06:30:15;;;;;;;18.45;4.32;;;;;;;;;;5068950;28;20084;-78
2022/05/15 06:32:42;;;;;;;16.60;4.88;;;;;;;;;;5071739;28;20041;-78
2022/05/15 06:35:09;;;;;;;16.65;4.80;;;;;;;;;;5056299;28;20105;-79
2022/05/15 06:37:35;;;;;;;19.35;4.13;;;;;;;;;;5073304;28;20059;-78
2022/05/15 06:40:02;;;;;;;17.23;4.70;;;;;;;;;;5059455;28;20105;-78
2022/05/15 06:42:29;;;;;;;21.58;5.22;;;;;;;;;;5068554;28;20053;-77
2022/05/15 06:44:56;;;;;;;16.55;4.80;;;;;;;;;;5069265;28;20038;-79
2022/05/15 06:47:24;;;;;;;13.70;4.43;;;;;;;;;;5072675;28;20174;-79
2022/05/15 06:49:50;;;;;;;21.27;5.22;;;;;;;;;;5066394;28;20116;-79
2022/05/15 06:52:16;;;;;;;22.55;4.78;;;;;;;;;;5052270;28;20538;-79
2022/05/15 06:54:43;;;;;;;16.02;4.45;;;;;;;;;;5052990;28;20049;-79
2022/05/15 06:59:58;;;;;;;19.15;4.82;;;;;;;;;;5073130;28;20180;-79
2022/05/15 07:02:25;;;;;;;18.42;5.15;;;;;;;;;;5073965;28;20064;-79
2022/05/15 07:04:52;;;;;;;19.90;5.13;;;;;;;;;;5077327;28;20084;-79
2022/05/15 07:07:19;;;;;;;12.32;4.35;;;;;;;;;;5077022;28;20049;-79
2022/05/15 07:09:45;;;;;;;18.38;5.30;;;;;;;;;;5064883;28;20065;-77
2022/05/15 07:12:12;;;;;;;17.63;5.53;;;;;;;;;;5077895;28;20083;-77
2022/05/15 07:14:38;;;;;;;16.55;4.18;;;;;;;;;;5059978;28;20064;-77
2022/05/15 07:17:05;;;;;;;18.52;5.15;;;;;;;;;;5053401;28;20055;-78
2022/05/15 07:19:35;;;;;;;14.48;4.80;;;;;;;;;;5063989;28;20531;-77
2022/05/15 07:22:02;;;;;;;16.90;4.68;;;;;;;;;;5062023;28;20180;-78
2022/05/15 07:24:28;;;;;;;16.45;4.80;;;;;;;;;;5065477;28;20053;-77
2022/05/15 07:26:54;;;;;;;16.52;4.82;;;;;;;;;;5071118;28;20052;-79
2022/05/15 07:29:24;;;;;;;13.90;4.82;;;;;;;;;;5085645;28;20053;-77
2022/05/15 07:31:51;;;;;;;20.20;5.50;;;;;;;;;;5061419;28;20615;-77
2022/05/15 07:34:18;;;;;;;15.00;4.80;;;;;;;;;;5051219;28;20616;-78
2022/05/15 07:36:45;;;;;;;20.23;5.00;;;;;;;;;;5066954;28;20529;-77
2022/05/15 07:39:11;;;;;;;17.88;5.05;;;;;;;;;;5065142;28;20053;-77
2022/05/15 07:41:37;;;;;;;18.35;5.30;;;;;;;;;;5065170;28;20084;-77
2022/05/15 07:44:04;;;;;;;14.82;4.80;;;;;;;;;;5066474;28;20053;-77
2022/05/15 07:46:30;;;;;;;16.10;5.43;;;;;;;;;;5063537;28;20053;-77
2022/05/15 07:48:58;;;;;;;15.60;4.80;;;;;;;;;;5066353;28;20158;-78
2022/05/15 07:51:24;;;;;;;21.45;5.35;;;;;;;;;;5065943;28;20569;-78
2022/05/15 07:53:51;;;;;;;18.20;5.22;;;;;;;;;;5065278;28;20822;-77
2022/05/15 07:56:17;;;;;;;18.35;5.30;;;;;;;;;;5065172;28;20128;-77
2022/05/15 07:58:44;;;;;;;17.10;5.00;;;;;;;;;;5064855;28;20141;-78
2022/05/15 08:01:10;;;;;;;15.38;4.97;;;;;;;;;;5066304;28;20053;-77
2022/05/15 08:03:39;;;;;;;14.85;5.32;;;;;;;;;;5045251;28;20535;-78
2022/05/15 08:08:51;;;;;;;16.92;5.07;;;;;;;;;;5045782;28;20057;-77
2022/05/15 08:11:18;;;;;;;13.05;5.05;;;;;;;;;;5061454;28;20049;-78
2022/05/15 08:13:44;;;;;;;17.95;5.63;;;;;;;;;;5061452;28;20068;-77
2022/05/15 08:16:11;;;;;;;21.02;6.10;;;;;;;;;;5055499;28;20627;-78
2022/05/15 08:24:09;;;;;;;18.05;5.80;;;;;;;;;;5065905;28;20049;-78
2022/05/15 08:26:37;;;;;;;14.20;6.28;;;;;;;;;;5065980;28;20057;-78
2022/05/15 08:29:04;;;;;;;16.50;5.70;;;;;;;;;;5064027;28;20099;-78
2022/05/15 08:31:30;;;;;;;16.33;5.40;;;;;;;;;;5066327;28;20097;-78
2022/05/15 08:33:57;;;;;;;15.80;5.20;;;;;;;;;;5062952;28;20056;-77
2022/05/15 08:36:23;;;;;;;14.63;5.47;;;;;;;;;;5065973;28;20096;-78
2022/05/15 08:38:50;;;;;;;15.38;5.45;;;;;;;;;;5052897;28;20520;-78
2022/05/15 08:41:25;;;;;;;14.77;5.78;;;;;;;;;;5061243;28;20056;-78
2022/05/15 08:44:04;;;;;;;18.73;6.13;;;;;;;;;;5060087;28;20633;-78
2022/05/15 08:47:02;;;;;;;15.68;5.43;;;;;;;;;;5060318;28;20137;-78
2022/05/15 08:49:37;;;;;;;15.68;6.00;;;;;;;;;;5044003;28;20067;-78
2022/05/15 08:52:13;;;;;;;17.48;5.35;;;;;;;;;;5044670;28;20076;-78
2022/05/15 08:54:49;;;;;;;16.88;5.72;;;;;;;;;;5045217;28;20473;-78
2022/05/15 08:57:18;;;;;;;14.35;5.22;;;;;;;;;;5060376;28;20600;-78
2022/05/15 08:59:51;;;;;;;14.90;5.32;;;;;;;;;;5045343;28;20085;-77
2022/05/15 09:02:17;;;;;;;12.80;5.35;;;;;;;;;;5060175;28;20581;-78
2022/05/15 09:04:44;;;;;;;14.38;5.07;;;;;;;;;;5060001;28;20168;-78
2022/05/15 09:07:17;;;;;;;13.55;4.45;;;;;;;;;;5044709;28;20092;-78
2022/05/15 09:10:04;;;;;;;16.08;5.75;;;;;;;;;;5043745;28;20141;-78
2022/05/15 09:12:32;;;;;;;15.85;5.53;;;;;;;;;;5042861;28;20133;-77
2022/05/15 09:15:19;;;;;;;16.05;5.30;;;;;;;;;;5044650;28;20986;-78
2022/05/15 09:17:49;;;;;;;13.05;4.82;;;;;;;;;;5063160;28;20060;-78
2022/05/15 09:20:19;;;;;;;14.93;5.05;;;;;;;;;;5064744;28;20148;-78
2022/05/15 09:23:01;;;;;;;12.50;4.78;;;;;;;;;;5065530;28;20129;-78
2022/05/15 09:25:32;;;;;;;19.77;5.95;;;;;;;;;;5065003;28;20210;-77
2022/05/15 09:28:03;;;;;;;16.38;4.53;;;;;;;;;;5063275;28;20135;-78
2022/05/15 09:30:42;;;;;;;14.15;5.13;;;;;;;;;;5062047;28;20491;-78
2022/05/15 09:33:23;;;;;;;14.05;5.00;;;;;;;;;;5081131;28;20051;-78
2022/05/15 09:35:50;;;;;;;14.57;4.30;;;;;;;;;;5063481;28;20146;-78
2022/05/15 09:38:29;;;;;;;11.15;3.90;;;;;;;;;;5065589;28;20063;-78
2022/05/15 09:43:54;;;;;;;17.05;4.20;;;;;;;;;;5064771;28;20057;-78
2022/05/15 09:46:22;;;;;;;12.40;4.40;;;;;;;;;;5062654;28;20057;-78
2022/05/15 09:49:03;;;;;;;15.88;5.38;;;;;;;;;;5064338;28;20572;-78
2022/05/15 09:51:30;;;;;;;15.38;5.00;;;;;;;;;;5062496;28;20575;-78
2022/05/15 09:53:57;;;;;;;13.13;4.32;;;;;;;;;;5062871;28;20053;-78
2022/05/15 09:56:29;;;;;;;12.73;4.50;;;;;;;;;;5064247;28;20057;-78
2022/05/15 09:58:56;;;;;;;11.07;3.78;;;;;;;;;;5046547;28;20064;-78
2022/05/15 10:01:33;;;;;;;13.05;4.20;;;;;;;;;;5054116;28;20137;-78
2022/05/15 10:04:00;;;;;;;14.75;3.88;;;;;;;;;;5055862;28;20053;-79
2022/05/15 10:06:31;;;;;;;11.07;4.05;;;;;;;;;;5062448;28;20148;-79
2022/05/15 10:09:36;;;;;;;9.10;3.40;;;;;;;;;;5064090;28;20380;-78
2022/05/15 10:12:08;;;;;;;11.43;3.65;;;;;;;;;;5016090;28;20064;-80
2022/05/15 10:14:39;;;;;;;14.25;3.72;;;;;;;;;;5075913;28;20117;-80
2022/05/15 10:17:07;;;;;;;10.70;3.83;;;;;;;;;;5076233;28;20087;-80
2022/05/15 10:19:33;;;;;;;10.77;3.65;;;;;;;;;;5069869;28;20147;-77
2022/05/15 10:22:12;;;;;;;10.20;3.40;;;;;;;;;;5063609;28;20089;-80
2022/05/15 10:24:40;;;;;;;12.65;3.58;;;;;;;;;;5067776;28;20095;-77
2022/05/15 10:27:13;;;;;;;13.02;3.33;;;;;;;;;;5058451;28;20104;-78
2022/05/15 10:29:52;;;;;;;10.88;3.40;;;;;;;;;;5059750;28;20585;-77
2022/05/15 10:32:31;;;;;;;8.75;2.85;;;;;;;;;;5062672;28;20680;-78
2022/05/15 10:34:58;;;;;;;13.18;3.15;;;;;;;;;;5073577;28;20144;-80
2022/05/15 10:37:27;;;;;;;9.15;2.80;;;;;;;;;;5073540;28;20139;-80
2022/05/15 10:40:12;;;;;;;11.00;2.90;;;;;;;;;;5071916;28;20087;-77
2022/05/15 10:42:54;;;;;;;8.30;2.80;;;;;;;;;;5062151;28;20057;-78
2022/05/15 10:45:31;;;;;;;11.38;2.88;;;;;;;;;;5063804;28;20135;-77
2022/05/15 10:48:05;;;;;;;10.70;2.92;;;;;;;;;;5049672;28;20068;-78
2022/05/15 10:50:32;;;;;;;9.13;3.05;;;;;;;;;;5050590;28;20057;-77
2022/05/15 10:59:18;;;;;;;9.65;2.55;;;;;;;;;;5065964;28;20063;-78
2022/05/15 11:01:49;;;;;;;11.88;3.40;;;;;;;;;;5068060;28;20053;-77
2022/05/15 11:04:23;;;;;;;10.45;3.25;;;;;;;;;;5064809;28;20053;-78
2022/05/15 11:06:56;;;;;;;11.13;2.83;;;;;;;;;;5067233;28;20136;-78
2022/05/15 11:09:23;;;;;;;9.63;2.83;;;;;;;;;;5066930;28;20179;-78
2022/05/15 11:12:09;;;;;;;9.45;2.55;;;;;;;;;;5053658;28;20077;-78
2022/05/15 11:14:43;;;;;;;11.98;4.07;;;;;;;;;;5062319;28;20057;-78
2022/05/15 11:17:21;;;;;;;9.00;3.00;;;;;;;;;;5066072;28;20061;-78
2022/05/15 11:19:49;;;;;;;9.43;3.08;;;;;;;;;;5065555;28;20056;-77
2022/05/15 11:22:19;;;;;;;9.25;2.38;;;;;;;;;;5066823;28;20530;-78
2022/05/15 11:24:54;;;;;;;9.27;2.70;;;;;;;;;;5065412;28;20053;-77
2022/05/15 11:27:51;;;;;;;7.55;2.47;;;;;;;;;;5065238;28;20057;-77
2022/05/15 11:30:20;;;;;;;8.52;2.38;;;;;;;;;;5024625;28;20072;-78
2022/05/15 11:32:46;;;;;;;8.13;2.30;;;;;;;;;;5060481;28;20080;-77
2022/05/15 11:35:22;;;;;;;9.77;2.10;;;;;;;;;;5065000;28;20095;-77
2022/05/15 11:37:51;;;;;;;10.25;2.42;;;;;;;;;;5066751;28;20138;-77
2022/05/15 11:40:35;;;;;;;9.68;2.30;;;;;;;;;;5061649;28;20176;-77
2022/05/15 11:43:20;;;;;;;10.30;2.30;;;;;;;;;;5046090;28;20057;-78
2022/05/15 11:45:51;;;;;;;10.02;2.30;;;;;;;;;;5057180;28;20552;-78
2022/05/15 11:48:19;;;;;;;8.38;2.33;;;;;;;;;;5064148;28;20330;-79
2022/05/15 11:50:58;;;;;;;10.02;2.33;;;;;;;;;;5067684;28;20501;-79
2022/05/15 11:53:45;;;;;;;7.88;2.38;;;;;;;;;;5062630;28;20061;-77
2022/05/15 11:56:20;;;;;;;8.80;2.17;;;;;;;;;;5057713;28;20099;-77
2022/05/15 11:58:52;;;;;;;9.32;2.10;;;;;;;;;;5066023;28;20443;-77
2022/05/15 12:01:18;;;;;;;7.30;2.38;;;;;;;;;;5065548;28;20136;-78
2022/05/15 12:03:46;;;;;;;8.32;2.35;;;;;;;;;;5045068;28;20136;-77
2022/05/15 12:06:14;;;;;;;12.15;2.25;;;;;;;;;;5053534;28;20077;-77
2022/05/15 12:08:41;;;;;;;10.20;2.58;;;;;;;;;;5055490;28;20321;-78
2022/05/15 12:11:26;;;;;;;7.90;2.55;;;;;;;;;;5044109;28;20068;-77
2022/05/15 12:13:54;;;;;;;11.02;3.10;;;;;;;;;;5057767;28;20160;-77
2022/05/15 12:16:22;;;;;;;9.38;2.53;;;;;;;;;;5065622;28;20080;-78
2022/05/15 12:18:56;;;;;;;10.48;3.05;;;;;;;;;;5064716;28;20134;-78
2022/05/15 12:21:28;;;;;;;8.98;2.78;;;;;;;;;;5058347;28;20060;-77
2022/05/15 12:26:45;;;;;;;;;;;;;;;;;;5071276;28;20144;-78
2022/05/15 12:29:14;;;;;;;8.95;2.88;;;;;;;;;;5068759;28;43846;-78
2022/05/15 12:31:43;;;;;;;9.88;2.97;;;;;;;;;;5067016;28;20053;-78
2022/05/15 12:34:23;;;;;;;11.02;2.60;;;;;;;;;;5080838;28;20472;-78
2022/05/15 12:36:55;;;;;;;6.38;2.17;;;;;;;;;;5058487;28;20148;-78
2022/05/15 12:39:24;;;;;;;9.40;2.40;;;;;;;;;;5058803;28;20084;-78
2022/05/15 12:41:51;;;;;;;8.55;2.50;;;;;;;;;;5065114;28;20076;-78
2022/05/15 12:44:27;;;;;;;9.30;2.50;;;;;;;;;;5065130;28;20080;-78
2022/05/15 12:46:55;;;;;;;10.07;2.45;;;;;;;;;;5060749;28;20136;-78
2022/05/15 12:49:29;;;;;;;13.05;2.60;;;;;;;;;;5064649;28;20906;-78
2022/05/15 12:52:07;;;;;;;8.68;2.28;;;;;;;;;;5046204;28;20149;-78
2022/05/15 12:54:34;;;;;;;6.10;2.30;;;;;;;;;;5062191;28;20134;-78
2022/05/15 12:57:01;;;;;;;11.45;2.47;;;;;;;;;;5066222;28;20493;-78
2022/05/15 12:59:28;;;;;;;8.32;2.17;;;;;;;;;;5064816;28;20052;-78
2022/05/15 13:01:55;;;;;;;7.93;2.30;;;;;;;;;;5077565;28;20069;-79
2022/05/15 13:04:23;;;;;;;8.75;2.70;;;;;;;;;;5080864;28;20487;-78
2022/05/15 13:06:53;;;;;;;8.23;2.33;;;;;;;;;;5060979;28;20571;-78
2022/05/15 13:09:21;;;;;;;7.47;2.33;;;;;;;;;;5063130;28;20054;-78
2022/05/15 13:11:50;;;;;;;9.32;2.53;;;;;;;;;;5047895;28;20084;-78
2022/05/15 13:14:19;;;;;;;9.00;2.43;;;;;;;;;;5071102;28;20052;-78
2022/05/15 13:16:47;;;;;;;11.63;3.13;;;;;;;;;;5064172;28;20165;-78
2022/05/15 13:19:15;;;;;;;8.32;2.60;;;;;;;;;;5055690;28;20057;-78
2022/05/15 13:21:44;;;;;;;7.75;2.38;;;;;;;;;;5051772;28;20139;-78
2022/05/15 13:24:11;;;;;;;;;;;;;;;;;;5065491;28;20140;-79
2022/05/15 13:26:44;;;;;;;5.50;2.00;;;;;;;;;;5063072;28;45295;-79
2022/05/15 13:29:14;;;;;;;7.20;2.22;;;;;;;;;;5055751;28;20510;-79
2022/05/15 13:31:41;;;;;;;6.65;2.13;;;;;;;;;;5068679;28;20080;-80
2022/05/15 13:34:13;;;;;;;9.10;2.33;;;;;;;;;;5063797;28;20668;-77
2022/05/15 13:36:50;;;;;;;10.20;2.55;;;;;;;;;;5077729;28;20060;-78
2022/05/15 13:44:49;;;;;;;8.20;2.58;;;;;;;;;;5058958;28;20930;-77
2022/05/15 13:47:16;;;;;;;8.77;2.75;;;;;;;;;;5063940;28;20144;-78
2022/05/15 13:49:47;;;;;;;10.73;2.85;;;;;;;;;;5063516;28;20473;-78
2022/05/15 13:52:29;;;;;;;6.88;2.33;;;;;;;;;;5064092;28;20523;-78
2022/05/15 13:54:56;;;;;;;12.73;2.65;;;;;;;;;;5063918;28;20861;-78
2022/05/15 13:57:23;;;;;;;5.95;2.20;;;;;;;;;;5060024;28;20132;-78
2022/05/15 13:59:50;;;;;;;8.32;2.55;;;;;;;;;;5065801;28;20144;-78
2022/05/15 14:02:16;;;;;;;9.48;2.58;;;;;;;;;;5060316;28;20156;-78
2022/05/15 14:04:44;;;;;;;10.52;2.33;;;;;;;;;;5061417;28;20091;-78
2022/05/15 14:07:23;;;;;;;7.45;2.47;;;;;;;;;;5054440;28;20052;-77
2022/05/15 14:09:51;;;;;;;6.30;2.28;;;;;;;;;;5063831;28;20114;-78
2022/05/15 14:12:18;;;;;;;9.85;2.67;;;;;;;;;;5062347;28;20508;-78
2022/05/15 14:14:51;;;;;;;7.15;2.30;;;;;;;;;;5063051;28;20102;-78
2022/05/15 14:17:44;;;;;;;9.10;2.30;;;;;;;;;;5062145;28;20076;-77
2022/05/15 14:20:10;;;;;;;8.70;2.40;;;;;;;;;;5046062;28;20053;-78
2022/05/15 14:22:37;;;;;;;8.25;2.47;;;;;;;;;;5063140;28;20045;-77
2022/05/15 14:25:05;;;;;;;7.40;2.50;;;;;;;;;;5057122;28;20914;-77
2022/05/15 14:27:32;;;;;;;11.48;3.42;;;;;;;;;;5054154;28;20536;-77
2022/05/15 14:29:58;;;;;;;9.68;2.70;;;;;;;;;;5068109;28;20153;-78
2022/05/15 14:32:27;;;;;;;11.68;2.60;;;;;;;;;;5062714;28;20481;-79
2022/05/15 14:34:55;;;;;;;6.28;2.40;;;;;;;;;;5063244;28;20057;-78
2022/05/15 14:37:22;;;;;;;8.25;2.13;;;;;;;;;;5082472;28;20065;-78
2022/05/15 14:39:48;;;;;;;9.30;2.70;;;;;;;;;;5066722;28;20060;-78
2022/05/15 14:42:14;;;;;;;10.13;2.63;;;;;;;;;;5069535;28;20143;-78
2022/05/15 14:44:41;;;;;;;8.25;2.40;;;;;;;;;;5055733;28;20044;-78
2022/05/15 14:47:10;;;;;;;9.55;2.75;;;;;;;;;;5067734;28;20077;-78
2022/05/15 14:49:37;;;;;;;7.78;2.63;;;;;;;;;;5067063;28;20142;-79
2022/05/15 14:52:05;;;;;;;7.45;2.58;;;;;;;;;;5067117;28;20148;-78
2022/05/15 14:54:32;;;;;;;8.05;2.45;;;;;;;;;;5065310;28;20056;-78
2022/05/15 14:56:59;;;;;;;10.48;2.42;;;;;;;;;;5049182;28;20683;-78
2022/05/15 14:59:27;;;;;;;6.05;2.25;;;;;;;;;;5065825;28;20113;-78
2022/05/15 15:01:53;;;;;;;7.50;2.42;;;;;;;;;;5067699;28;20132;-78
2022/05/15 15:04:19;;;;;;;9.25;2.42;;;;;;;;;;5083420;28;20528;-78
2022/05/15 15:06:46;;;;;;;9.18;2.42;;;;;;;;;;5061469;28;20068;-78
2022/05/15 15:09:12;;;;;;;9.32;2.58;;;;;;;;;;5059576;28;20504;-79
2022/05/15 15:11:47;;;;;;;8.85;2.10;;;;;;;;;;5077390;28;20044;-78
2022/05/15 15:14:14;;;;;;;6.88;1.92;;;;;;;;;;5053357;28;20156;-79
2022/05/15 15:16:41;;;;;;;7.85;2.35;;;;;;;;;;5048309;28;20054;-79
2022/05/15 15:19:09;;;;;;;9.32;2.28;;;;;;;;;;5063869;28;20053;-78